Time;durP1;ratioP1;P1;durP2;ratioP2;P2;SDS_P1;SDS_P2;PMS_P1;PMS_P2;Temp;Humidity;BMP_temperature;BMP_pressure;BME280_temperature;BME280_humidity;BME280_pressure;Samples;Min_cycle;Max_cycle;Signal;HPM_P1;HPM_P2
2023/03/31 00:02:28;;;;;;;;;;;;;;;20.05;38.80;95239.25;10465501;28;2128;-68
2023/03/31 00:07:29;;;;;;;;;;;;;;;20.03;38.76;95228.25;10460038;28;2057;-68
2023/03/31 00:12:30;;;;;;;;;;;;;;;20.02;38.71;95213.50;10483269;28;2055;-68
2023/03/31 00:17:34;;;;;;;;;;;;;;;20.02;38.84;95206.41;10479516;28;2040;-68
2023/03/31 00:22:37;;;;;;;;;;;;;;;20.00;38.67;95198.00;10480407;28;2052;-68
2023/03/31 00:27:37;;;;;;;;;;;;;;;20.00;38.63;95191.97;10482974;28;1964;-69
2023/03/31 00:32:38;;;;;;;;;;;;;;;20.00;38.72;95186.69;10462902;28;2060;-68
2023/03/31 00:37:38;;;;;;;;;;;;;;;19.99;38.58;95178.00;10482255;28;2038;-68
2023/03/31 00:42:40;;;;;;;;;;;;;;;19.96;38.53;95164.66;10479960;28;2084;-68
2023/03/31 00:47:44;;;;;;;;;;;;;;;19.96;38.59;95149.66;10481221;28;2003;-68
2023/03/31 00:52:44;;;;;;;;;;;;;;;19.96;38.77;95143.59;10480153;28;2067;-68
2023/03/31 00:57:45;;;;;;;;;;;;;;;19.94;38.68;95138.63;10483044;28;1978;-69
2023/03/31 01:02:51;;;;;;;;;;;;;;;19.93;38.66;95137.06;10478703;28;2029;-68
2023/03/31 01:07:52;;;;;;;;;;;;;;;19.93;38.69;95125.75;10482424;28;2005;-68
2023/03/31 01:12:52;;;;;;;;;;;;;;;19.93;38.30;95123.13;10468781;28;2053;-68
2023/03/31 01:17:56;;;;;;;;;;;;;;;19.91;38.43;95106.84;10461414;28;2172;-66
2023/03/31 01:23:01;;;;;;;;;;;;;;;19.90;38.45;95102.66;10476546;28;2013;-67
2023/03/31 01:28:11;;;;;;;;;;;;;;;19.90;38.42;95102.66;10459976;28;2188;-67
2023/03/31 01:33:18;;;;;;;;;;;;;;;19.88;38.28;95086.38;10476089;28;2073;-68
2023/03/31 01:38:38;;;;;;;;;;;;;;;19.87;38.34;95069.81;10462742;28;2007;-67
2023/03/31 01:43:50;;;;;;;;;;;;;;;19.88;38.31;95062.72;10458630;28;2174;-68
2023/03/31 01:49:09;;;;;;;;;;;;;;;19.86;38.07;95059.59;10486362;28;1993;-67
2023/03/31 01:54:13;;;;;;;;;;;;;;;19.84;38.33;95059.88;10467230;28;2016;-67
2023/03/31 01:59:18;;;;;;;;;;;;;;;19.85;38.11;95052.75;10489809;28;2131;-68
2023/03/31 02:04:28;;;;;;;;;;;;;;;19.83;38.19;95037.25;10469389;28;2012;-67
2023/03/31 02:09:40;;;;;;;;;;;;;;;19.82;38.02;95029.66;10480292;28;2044;-67
2023/03/31 02:14:42;;;;;;;;;;;;;;;19.82;38.14;95021.78;10460454;28;3029;-68
2023/03/31 02:19:52;;;;;;;;;;;;;;;19.81;38.04;95007.03;10474198;28;2031;-67
2023/03/31 02:24:52;;;;;;;;;;;;;;;19.79;37.98;95009.19;10473927;28;2118;-67
2023/03/31 02:29:53;;;;;;;;;;;;;;;19.80;38.02;95005.50;10462388;28;2161;-67
2023/03/31 02:34:53;;;;;;;;;;;;;;;19.78;38.04;95005.78;10457340;28;2114;-68
2023/03/31 02:39:55;;;;;;;;;;;;;;;19.77;38.00;95004.22;10457694;28;1996;-68
2023/03/31 02:45:03;;;;;;;;;;;;;;;19.77;38.00;95011.31;10457290;28;2177;-68
2023/03/31 02:50:04;;;;;;;;;;;;;;;19.77;37.94;95013.94;10480719;28;1986;-68
2023/03/31 02:55:14;;;;;;;;;;;;;;;19.76;38.08;95025.53;10477803;28;2369;-68
2023/03/31 03:00:16;;;;;;;;;;;;;;;19.75;37.95;95008.19;10477203;28;2059;-68
2023/03/31 03:05:20;;;;;;;;;;;;;;;19.74;37.84;94996.13;10480789;28;2037;-68
2023/03/31 03:10:27;;;;;;;;;;;;;;;19.73;37.76;94992.72;10489430;28;2054;-68
2023/03/31 03:15:32;;;;;;;;;;;;;;;19.73;37.97;94986.66;10485025;28;2072;-69
2023/03/31 03:20:34;;;;;;;;;;;;;;;19.72;37.75;94990.38;10493668;28;2103;-68
2023/03/31 03:25:36;;;;;;;;;;;;;;;19.70;37.90;94993.25;10483488;28;2067;-67
2023/03/31 03:30:36;;;;;;;;;;;;;;;19.70;37.69;95009.03;10461862;28;2043;-67
2023/03/31 03:35:37;;;;;;;;;;;;;;;19.70;37.94;95014.28;10483994;28;2044;-68
2023/03/31 03:40:39;;;;;;;;;;;;;;;19.69;37.87;95017.22;10485401;28;2061;-68
2023/03/31 03:45:40;;;;;;;;;;;;;;;19.69;37.79;95027.75;10478904;28;1982;-68
2023/03/31 03:50:40;;;;;;;;;;;;;;;19.67;37.86;95035.13;10484317;28;2041;-67
2023/03/31 03:55:41;;;;;;;;;;;;;;;19.67;37.70;95014.09;10486644;28;2013;-68
2023/03/31 04:00:44;;;;;;;;;;;;;;;19.66;37.86;94999.41;10484740;28;2030;-68
2023/03/31 04:05:48;;;;;;;;;;;;;;;19.66;37.72;94983.63;10482056;28;2086;-67
2023/03/31 04:10:57;;;;;;;;;;;;;;;19.67;37.55;94978.06;10483401;28;2027;-68
2023/03/31 04:15:58;;;;;;;;;;;;;;;19.71;37.48;94965.91;10487545;28;1960;-68
2023/03/31 04:21:05;;;;;;;;;;;;;;;19.75;37.57;94952.97;10486773;28;2008;-68
2023/03/31 04:26:07;;;;;;;;;;;;;;;19.80;37.33;94948.44;10487347;28;2253;-68
2023/03/31 04:31:08;;;;;;;;;;;;;;;19.86;37.37;94938.59;10468003;28;2069;-67
2023/03/31 04:36:17;;;;;;;;;;;;;;;19.92;37.27;94917.19;10486020;28;1909;-67
2023/03/31 04:41:18;;;;;;;;;;;;;;;19.98;37.11;94896.84;10479795;28;2053;-68
2023/03/31 04:46:19;;;;;;;;;;;;;;;20.05;37.24;94897.25;10486988;28;2024;-68
2023/03/31 04:51:19;;;;;;;;;;;;;;;20.11;36.85;94904.75;10481609;28;2038;-68
2023/03/31 04:56:21;;;;;;;;;;;;;;;20.17;36.94;94894.91;10480320;28;2057;-68
2023/03/31 05:01:22;;;;;;;;;;;;;;;20.21;36.99;94830.94;10482176;28;2095;-68
2023/03/31 05:06:23;;;;;;;;;;;;;;;20.27;36.80;94807.91;10468485;28;2138;-68
2023/03/31 05:11:24;;;;;;;;;;;;;;;20.28;37.03;94776.03;10482081;28;2228;-68
2023/03/31 05:16:25;;;;;;;;;;;;;;;20.32;36.91;94778.84;10487966;28;1955;-67
2023/03/31 05:21:26;;;;;;;;;;;;;;;20.37;36.80;94765.59;10484204;28;2037;-68
2023/03/31 05:26:26;;;;;;;;;;;;;;;20.40;36.70;94741.34;10479561;28;2052;-68
2023/03/31 05:31:27;;;;;;;;;;;;;;;20.41;36.74;94737.63;10478871;28;2000;-68
2023/03/31 05:36:28;;;;;;;;;;;;;;;20.46;36.71;94731.47;10477556;28;1991;-68
2023/03/31 05:41:28;;;;;;;;;;;;;;;20.48;36.56;94709.03;10459223;28;2025;-68
2023/03/31 05:46:29;;;;;;;;;;;;;;;20.50;36.63;94690.31;10473322;28;2055;-68
2023/03/31 05:51:29;;;;;;;;;;;;;;;20.51;36.60;94666.31;10460178;28;2087;-68
2023/03/31 05:56:29;;;;;;;;;;;;;;;20.52;36.43;94656.56;10486264;28;2088;-68
2023/03/31 06:01:30;;;;;;;;;;;;;;;20.53;36.62;94639.69;10474991;28;2057;-68
2023/03/31 06:06:32;;;;;;;;;;;;;;;20.55;36.44;94634.88;10458476;28;2059;-68
2023/03/31 06:11:32;;;;;;;;;;;;;;;20.55;36.65;94619.88;10476611;28;2088;-69
2023/03/31 06:16:32;;;;;;;;;;;;;;;20.56;36.42;94613.53;10480047;28;2020;-68
2023/03/31 06:21:33;;;;;;;;;;;;;;;20.55;36.30;94587.50;10478895;28;1949;-68
2023/03/31 06:26:33;;;;;;;;;;;;;;;20.56;36.48;94562.75;10474401;28;2091;-68
2023/03/31 06:31:34;;;;;;;;;;;;;;;20.56;36.54;94562.75;10478948;28;2002;-68
2023/03/31 06:36:38;;;;;;;;;;;;;;;20.56;36.48;94563.53;10468398;28;2076;-67
2023/03/31 06:41:39;;;;;;;;;;;;;;;20.56;36.64;94547.72;10472668;28;2099;-67
2023/03/31 06:46:39;;;;;;;;;;;;;;;20.56;36.74;94552.22;10490031;28;2104;-66
2023/03/31 06:51:39;;;;;;;;;;;;;;;20.57;36.69;94546.63;10472126;28;2056;-68
2023/03/31 06:56:39;;;;;;;;;;;;;;;20.54;36.80;94549.09;10464081;28;2041;-69
2023/03/31 07:01:41;;;;;;;;;;;;;;;20.54;37.08;94560.41;10472851;28;2041;-68
2023/03/31 07:06:41;;;;;;;;;;;;;;;20.54;37.27;94588.59;10470262;28;1988;-68
2023/03/31 07:11:43;;;;;;;;;;;;;;;20.56;37.03;94631.19;10472535;28;2060;-68
2023/03/31 07:16:43;;;;;;;;;;;;;;;20.55;37.35;94671.75;10471826;28;2057;-70
2023/03/31 07:21:45;;;;;;;;;;;;;;;20.50;37.42;94662.13;10470372;28;2039;-64
2023/03/31 07:26:45;;;;;;;;;;;;;;;20.53;37.54;94703.66;10469776;28;2098;-66
2023/03/31 07:31:46;;;;;;;;;;;;;;;20.54;37.60;94696.53;10469093;28;2055;-69
2023/03/31 07:36:47;;;;;;;;;;;;;;;20.52;37.63;94681.03;10473016;28;2074;-69
2023/03/31 07:41:47;;;;;;;;;;;;;;;20.53;38.00;94658.88;10432193;28;2366;-68
2023/03/31 07:46:48;;;;;;;;;;;;;;;20.53;37.85;94637.81;10467523;28;2055;-66
2023/03/31 07:51:49;;;;;;;;;;;;;;;20.53;38.20;94606.22;10473734;28;2136;-66
2023/03/31 07:56:50;;;;;;;;;;;;;;;20.54;37.89;94594.66;10478408;28;2040;-65
2023/03/31 08:01:51;;;;;;;;;;;;;;;20.51;37.98;94587.34;10474953;28;2039;-66
2023/03/31 08:06:52;;;;;;;;;;;;;;;20.51;38.38;94550.47;10478420;28;2035;-68
2023/03/31 08:11:53;;;;;;;;;;;;;;;20.51;38.40;94534.69;10466989;28;2063;-66
2023/03/31 08:16:54;;;;;;;;;;;;;;;20.49;38.20;94530.78;10462606;28;2072;-67
2023/03/31 08:21:54;;;;;;;;;;;;;;;20.48;38.23;94535.31;10457050;28;2023;-68
2023/03/31 08:26:55;;;;;;;;;;;;;;;20.48;38.50;94535.31;10472910;28;2161;-66
2023/03/31 08:32:05;;;;;;;;;;;;;;;20.47;38.43;94525.84;10463888;28;2070;-68
2023/03/31 08:37:06;;;;;;;;;;;;;;;20.47;38.37;94509.25;10475184;28;2031;-67
2023/03/31 08:42:10;;;;;;;;;;;;;;;20.45;38.39;94508.78;10477869;28;2043;-66
2023/03/31 08:47:19;;;;;;;;;;;;;;;20.43;38.52;94527.53;10458243;28;2213;-66
2023/03/31 08:52:23;;;;;;;;;;;;;;;20.42;38.66;94568.09;10460916;28;2036;-65
2023/03/31 08:57:24;;;;;;;;;;;;;;;20.42;38.70;94586.53;10460406;28;2132;-67
2023/03/31 09:02:24;;;;;;;;;;;;;;;20.41;38.37;94600.75;10463492;28;2092;-65
2023/03/31 09:07:43;;;;;;;;;;;;;;;20.39;38.26;94589.72;10477096;28;2217;-66
2023/03/31 09:12:53;;;;;;;;;;;;;;;20.37;38.40;94576.09;10480062;28;2117;-67
2023/03/31 09:17:54;;;;;;;;;;;;;;;20.35;38.31;94582.72;10472846;28;2285;-65
2023/03/31 09:22:59;;;;;;;;;;;;;;;20.33;38.35;94566.47;10471099;28;2124;-65
2023/03/31 09:28:00;;;;;;;;;;;;;;;20.34;38.27;94544.34;10473419;28;2282;-67
2023/03/31 09:33:08;;;;;;;;;;;;;;;20.32;38.47;94535.97;10457719;28;2055;-68
2023/03/31 09:38:10;;;;;;;;;;;;;;;20.30;38.41;94528.34;10466345;28;2126;-65
2023/03/31 09:43:40;;;;;;;;;;;;;;;20.31;38.68;94519.41;10458029;28;2066;-66
2023/03/31 09:48:47;;;;;;;;;;;;;;;20.29;38.70;94511.03;10469859;28;2103;-66
2023/03/31 09:53:49;;;;;;;;;;;;;;;20.29;38.92;94497.88;10470477;28;2238;-66
2023/03/31 09:58:51;;;;;;;;;;;;;;;20.29;38.92;94489.97;10475059;28;2006;-67
2023/03/31 10:04:04;;;;;;;;;;;;;;;20.28;38.92;94507.63;10473190;28;2217;-65
2023/03/31 10:09:05;;;;;;;;;;;;;;;20.26;39.12;94495.81;10457601;28;2039;-68
2023/03/31 10:14:12;;;;;;;;;;;;;;;20.25;39.14;94484.56;10461830;28;2099;-67
2023/03/31 10:19:19;;;;;;;;;;;;;;;20.25;39.09;94470.63;10456856;28;2105;-67
2023/03/31 10:24:19;;;;;;;;;;;;;;;20.24;39.37;94453.25;10443210;28;2110;-67
2023/03/31 10:29:31;;;;;;;;;;;;;;;20.23;39.34;94441.97;10469651;28;2135;-68
2023/03/31 10:34:32;;;;;;;;;;;;;;;20.24;39.31;94434.84;10473852;28;2016;-67
2023/03/31 10:39:32;;;;;;;;;;;;;;;20.24;39.19;94426.94;10473079;28;2134;-67
2023/03/31 10:44:42;;;;;;;;;;;;;;;20.23;39.47;94417.50;10473557;28;2120;-68
2023/03/31 10:49:43;;;;;;;;;;;;;;;20.21;39.18;94409.94;10455562;28;2116;-67
2023/03/31 10:54:54;;;;;;;;;;;;;;;20.21;39.13;94406.50;10470031;28;2228;-67
2023/03/31 10:59:58;;;;;;;;;;;;;;;20.20;39.40;94383.91;10469732;28;2040;-69
2023/03/31 11:05:02;;;;;;;;;;;;;;;20.20;39.69;94370.75;10463818;28;1988;-68
2023/03/31 11:10:09;;;;;;;;;;;;;;;20.20;40.00;94387.31;10457296;28;2040;-68
2023/03/31 11:15:09;;;;;;;;;;;;;;;20.18;39.92;94362.34;10452774;28;2276;-68
2023/03/31 11:20:25;;;;;;;;;;;;;;;20.16;40.06;94375.81;10492522;28;2050;-69
2023/03/31 11:25:28;;;;;;;;;;;;;;;20.15;40.08;94437.38;10475994;28;2065;-69
2023/03/31 11:30:30;;;;;;;;;;;;;;;20.14;39.79;94477.16;10462158;28;2059;-69
2023/03/31 11:35:36;;;;;;;;;;;;;;;20.14;39.83;94421.91;10462680;28;1977;-69
2023/03/31 11:40:46;;;;;;;;;;;;;;;20.13;39.75;94436.16;10477695;28;2094;-69
2023/03/31 11:45:48;;;;;;;;;;;;;;;20.10;39.71;94402.56;10478957;28;2115;-69
2023/03/31 11:50:50;;;;;;;;;;;;;;;20.11;39.75;94370.66;10463877;28;2144;-69
2023/03/31 11:55:50;;;;;;;;;;;;;;;20.09;39.79;94364.19;10460524;28;2035;-68
2023/03/31 12:01:03;;;;;;;;;;;;;;;20.10;39.82;94355.19;10461427;28;2083;-68
2023/03/31 12:06:05;;;;;;;;;;;;;;;20.10;39.78;94329.69;10471740;28;2157;-68
2023/03/31 12:11:10;;;;;;;;;;;;;;;20.09;39.89;94295.78;10473066;28;2080;-67
2023/03/31 12:16:11;;;;;;;;;;;;;;;20.10;39.76;94289.44;10459467;28;2095;-66
2023/03/31 12:21:12;;;;;;;;;;;;;;;20.11;39.86;94307.53;10466627;28;1983;-64
2023/03/31 12:26:27;;;;;;;;;;;;;;;20.16;39.78;94290.84;10482356;28;1984;-66
2023/03/31 12:31:29;;;;;;;;;;;;;;;20.21;39.86;94290.75;10477600;28;2058;-65
2023/03/31 12:36:55;;;;;;;;;;;;;;;20.29;39.56;94290.00;10463402;28;2055;-67
2023/03/31 12:42:24;;;;;;;;;;;;;;;20.37;39.45;94297.13;10467289;28;2032;-65
2023/03/31 12:47:27;;;;;;;;;;;;;;;20.48;39.35;94308.16;10464228;28;1975;-64
2023/03/31 12:52:36;;;;;;;;;;;;;;;20.56;39.19;94316.06;10461376;28;1996;-64
2023/03/31 12:57:37;;;;;;;;;;;;;;;20.63;39.25;94289.28;10459949;28;1977;-66
2023/03/31 13:02:37;;;;;;;;;;;;;;;20.68;39.12;94291.75;10476913;28;1922;-65
2023/03/31 13:07:39;;;;;;;;;;;;;;;20.76;38.87;94304.94;10496522;28;1949;-66
2023/03/31 13:12:39;;;;;;;;;;;;;;;20.80;38.32;94305.06;10463427;28;1947;-70
2023/03/31 13:17:40;;;;;;;;;;;;;;;20.84;38.40;94291.00;10458203;28;1984;-67
2023/03/31 13:22:46;;;;;;;;;;;;;;;20.85;38.14;94308.34;10472343;28;1969;-62
2023/03/31 13:27:47;;;;;;;;;;;;;;;20.89;37.99;94217.09;10474078;28;1900;-62
2023/03/31 13:33:01;;;;;;;;;;;;;;;20.93;37.63;94254.13;10472662;28;1958;-61
2023/03/31 13:38:04;;;;;;;;;;;;;;;20.94;37.83;94256.44;10461543;28;1963;-62
2023/03/31 13:43:25;;;;;;;;;;;;;;;20.98;37.88;94265.25;10454552;28;1990;-67
2023/03/31 13:48:25;;;;;;;;;;;;;;;20.98;38.10;94267.13;10470170;28;2155;-68
2023/03/31 13:53:29;;;;;;;;;;;;;;;20.96;38.22;94299.03;10471404;28;2017;-68
2023/03/31 13:58:44;;;;;;;;;;;;;;;20.92;38.14;94282.31;10454176;28;1999;-67
2023/03/31 14:03:47;;;;;;;;;;;;;;;20.90;38.06;94313.44;10476823;28;1998;-67
2023/03/31 14:08:53;;;;;;;;;;;;;;;20.85;38.14;94279.38;10498530;28;2035;-67
2023/03/31 14:14:00;;;;;;;;;;;;;;;20.81;38.40;94281.06;10455070;28;2117;-67
2023/03/31 14:19:06;;;;;;;;;;;;;;;20.77;38.59;94295.94;10468027;28;2063;-67
2023/03/31 14:24:16;;;;;;;;;;;;;;;20.74;38.59;94304.47;10469762;28;2242;-66
2023/03/31 14:29:20;;;;;;;;;;;;;;;20.69;38.53;94299.34;10473129;28;2073;-66
2023/03/31 14:34:40;;;;;;;;;;;;;;;20.65;38.70;94305.53;10476174;28;1941;-66
2023/03/31 14:39:42;;;;;;;;;;;;;;;20.62;38.92;94309.56;10470528;28;2234;-64
2023/03/31 14:44:44;;;;;;;;;;;;;;;20.61;38.72;94358.03;10475878;28;1983;-65
2023/03/31 14:49:45;;;;;;;;;;;;;;;20.58;38.90;94356.03;10452526;28;1978;-63
2023/03/31 14:54:46;;;;;;;;;;;;;;;20.55;38.79;94366.38;10477001;28;2062;-66
2023/03/31 14:59:47;;;;;;;;;;;;;;;20.51;39.01;94376.75;10438611;28;2143;-66
2023/03/31 15:04:48;;;;;;;;;;;;;;;20.49;39.24;94305.19;10456055;28;2135;-66
2023/03/31 15:09:49;;;;;;;;;;;;;;;20.46;39.33;94305.81;10454747;28;2180;-66
2023/03/31 15:14:54;;;;;;;;;;;;;;;20.44;39.54;94284.31;10460966;28;2135;-66
2023/03/31 15:19:56;;;;;;;;;;;;;;;20.42;39.41;94281.19;10470220;28;2117;-68
2023/03/31 15:24:57;;;;;;;;;;;;;;;20.44;39.76;94265.88;10472755;28;2067;-67
2023/03/31 15:29:58;;;;;;;;;;;;;;;20.43;39.77;94258.28;10473690;28;1940;-64
2023/03/31 15:34:59;;;;;;;;;;;;;;;20.37;39.91;94252.38;10476099;28;2128;-67
2023/03/31 15:39:59;;;;;;;;;;;;;;;20.37;39.24;94243.72;10491769;28;1929;-70
2023/03/31 15:45:23;;;;;;;;;;;;;;;20.35;39.55;94265.06;10474218;28;2199;-69
2023/03/31 15:50:23;;;;;;;;;;;;;;;20.36;39.88;94260.59;10473965;28;2012;-69
2023/03/31 15:55:28;;;;;;;;;;;;;;;20.32;40.19;94263.03;10471258;28;2043;-70
2023/03/31 16:00:32;;;;;;;;;;;;;;;20.35;39.83;94272.19;10477591;28;2120;-68
2023/03/31 16:05:36;;;;;;;;;;;;;;;20.31;39.89;94274.66;10474021;28;2220;-69
2023/03/31 16:10:37;;;;;;;;;;;;;;;20.30;39.75;94275.75;10478138;28;1974;-68
2023/03/31 16:15:45;;;;;;;;;;;;;;;20.27;39.79;94256.09;10483795;28;2176;-69
2023/03/31 16:20:49;;;;;;;;;;;;;;;20.27;39.91;94255.31;10497389;28;2015;-68
2023/03/31 16:25:50;;;;;;;;;;;;;;;20.25;39.62;94252.22;10463953;28;2204;-68
2023/03/31 16:30:50;;;;;;;;;;;;;;;20.23;39.73;94265.69;10483544;28;2031;-69
2023/03/31 16:35:52;;;;;;;;;;;;;;;20.22;39.50;94264.13;10500797;28;1957;-68
2023/03/31 16:40:53;;;;;;;;;;;;;;;20.23;39.37;94285.94;10464142;28;2023;-68
2023/03/31 16:45:55;;;;;;;;;;;;;;;20.21;39.38;94296.78;10486480;28;2014;-68
2023/03/31 16:50:56;;;;;;;;;;;;;;;20.22;39.35;94308.06;10486302;28;1920;-68
2023/03/31 16:55:57;;;;;;;;;;;;;;;20.23;39.05;94325.41;10479735;28;2043;-68
2023/03/31 17:00:57;;;;;;;;;;;;;;;20.24;38.94;94361.94;10479428;28;2120;-69
2023/03/31 17:05:57;;;;;;;;;;;;;;;20.26;38.73;94401.09;10481699;28;2087;-68
2023/03/31 17:10:59;;;;;;;;;;;;;;;20.27;38.64;94392.13;10464818;28;1944;-69
2023/03/31 17:16:00;;;;;;;;;;;;;;;20.26;38.62;94382.69;10482593;28;2039;-69
2023/03/31 17:21:04;;;;;;;;;;;;;;;20.25;38.63;94379.28;10481909;28;1994;-69
2023/03/31 17:26:05;;;;;;;;;;;;;;;20.27;38.81;94371.88;10460809;28;1972;-69
2023/03/31 17:31:10;;;;;;;;;;;;;;;20.26;38.50;94380.06;10483392;28;2048;-69
2023/03/31 17:36:10;;;;;;;;;;;;;;;20.28;38.70;94380.53;10479611;28;2152;-69
2023/03/31 17:41:11;;;;;;;;;;;;;;;20.30;38.31;94380.25;10479351;28;1963;-69
2023/03/31 17:46:12;;;;;;;;;;;;;;;20.30;38.37;94375.72;10476611;28;2021;-69
2023/03/31 17:51:14;;;;;;;;;;;;;;;20.29;38.59;94389.97;10483375;28;2117;-69
2023/03/31 17:56:15;;;;;;;;;;;;;;;20.31;38.51;94381.78;10462423;28;2180;-68
2023/03/31 18:01:15;;;;;;;;;;;;;;;20.33;38.24;94384.88;10479568;28;2019;-68
2023/03/31 18:06:17;;;;;;;;;;;;;;;20.32;38.26;94386.72;10476941;28;1942;-67
2023/03/31 18:11:17;;;;;;;;;;;;;;;20.31;38.19;94400.97;10480134;28;1957;-67
2023/03/31 18:16:18;;;;;;;;;;;;;;;20.30;38.25;94409.94;10471358;28;2172;-65
2023/03/31 18:21:18;;;;;;;;;;;;;;;20.31;38.08;94418.63;10481219;28;1997;-64
2023/03/31 18:26:18;;;;;;;;;;;;;;;20.28;38.19;94430.53;10478939;28;1947;-65
2023/03/31 18:31:20;;;;;;;;;;;;;;;20.28;37.92;94441.81;10461677;28;2082;-68
2023/03/31 18:36:21;;;;;;;;;;;;;;;20.27;37.98;94426.34;10439904;28;2191;-64
2023/03/31 18:41:22;;;;;;;;;;;;;;;20.27;38.16;94440.28;10478259;28;1965;-66
2023/03/31 18:46:23;;;;;;;;;;;;;;;20.31;39.29;94445.72;10474990;28;2115;-67
2023/03/31 18:51:23;;;;;;;;;;;;;;;20.34;40.02;94437.19;10461956;28;1959;-66
2023/03/31 18:56:24;;;;;;;;;;;;;;;20.38;40.37;94440.78;10491192;28;2177;-67
2023/03/31 19:01:25;;;;;;;;;;;;;;;20.39;40.43;94433.66;10481333;28;2065;-67
2023/03/31 19:06:25;;;;;;;;;;;;;;;20.39;40.04;94447.59;10481688;28;2292;-66
2023/03/31 19:11:26;;;;;;;;;;;;;;;20.38;40.25;94448.69;10473661;28;2172;-67
2023/03/31 19:16:41;;;;;;;;;;;;;;;20.38;40.57;94440.78;10477601;28;2025;-66
2023/03/31 19:21:51;;;;;;;;;;;;;;;20.37;40.22;94438.47;10463826;28;2052;-66
2023/03/31 19:26:52;;;;;;;;;;;;;;;20.37;40.44;94427.94;10476828;28;1968;-67
2023/03/31 19:31:52;;;;;;;;;;;;;;;20.34;40.40;94431.94;10476675;28;1953;-67
2023/03/31 19:36:53;;;;;;;;;;;;;;;20.31;40.20;94419.41;10473347;28;2044;-67
2023/03/31 19:41:54;;;;;;;;;;;;;;;20.30;40.06;94422.34;10473201;28;2091;-67
2023/03/31 19:46:57;;;;;;;;;;;;;;;20.25;40.09;94410.09;10480028;28;2248;-66
2023/03/31 19:51:58;;;;;;;;;;;;;;;20.23;40.10;94407.00;10484154;28;1945;-67
2023/03/31 19:56:59;;;;;;;;;;;;;;;20.22;40.07;94389.63;10484367;28;1996;-67
2023/03/31 20:02:01;;;;;;;;;;;;;;;20.19;40.04;94392.84;10486038;28;1945;-67
2023/03/31 20:07:02;;;;;;;;;;;;;;;20.18;40.00;94383.41;10467912;28;2006;-67
2023/03/31 20:12:02;;;;;;;;;;;;;;;20.14;40.34;94387.72;10482963;28;1905;-67
2023/03/31 20:17:05;;;;;;;;;;;;;;;20.12;39.92;94379.34;10474961;28;1934;-67
2023/03/31 20:22:05;;;;;;;;;;;;;;;20.10;39.74;94381.50;10492169;28;1928;-68
2023/03/31 20:27:05;;;;;;;;;;;;;;;20.07;39.88;94376.88;10485754;28;2024;-69
2023/03/31 20:32:07;;;;;;;;;;;;;;;20.06;39.87;94383.19;10482682;28;1970;-69
2023/03/31 20:37:07;;;;;;;;;;;;;;;20.04;39.84;94377.47;10480432;28;2003;-66
2023/03/31 20:42:08;;;;;;;;;;;;;;;20.03;39.76;94375.91;10477536;28;2121;-67
2023/03/31 20:47:09;;;;;;;;;;;;;;;20.00;39.61;94373.88;10483708;28;2195;-67
2023/03/31 20:52:09;;;;;;;;;;;;;;;19.97;39.60;94374.50;10479575;28;1966;-67
2023/03/31 20:57:10;;;;;;;;;;;;;;;19.95;39.62;94380.03;10483064;28;1913;-67
2023/03/31 21:02:11;;;;;;;;;;;;;;;19.94;39.45;94382.97;10481601;28;1956;-67
2023/03/31 21:07:12;;;;;;;;;;;;;;;19.91;39.45;94386.97;10459235;28;2075;-67
2023/03/31 21:12:12;;;;;;;;;;;;;;;19.88;39.42;94392.84;10481044;28;1936;-66
2023/03/31 21:17:12;;;;;;;;;;;;;;;19.87;39.30;94396.56;10483557;28;2108;-67
2023/03/31 21:22:12;;;;;;;;;;;;;;;19.86;39.14;94402.13;10479043;28;2129;-67
2023/03/31 21:27:14;;;;;;;;;;;;;;;19.84;39.36;94409.53;10486855;28;2022;-67
2023/03/31 21:32:14;;;;;;;;;;;;;;;19.83;39.32;94406.13;10484093;28;1933;-67
2023/03/31 21:37:15;;;;;;;;;;;;;;;19.81;39.13;94399.59;10482405;28;1953;-67
2023/03/31 21:42:16;;;;;;;;;;;;;;;19.79;38.97;94414.91;10479213;28;1927;-67
2023/03/31 21:47:16;;;;;;;;;;;;;;;19.77;38.88;94427.56;10482865;28;1936;-67
2023/03/31 21:52:27;;;;;;;;;;;;;;;19.77;38.90;94430.19;10482445;28;1979;-67
2023/03/31 21:57:35;;;;;;;;;;;;;;;19.74;38.68;94425.56;10479296;28;1949;-66
2023/03/31 22:02:35;;;;;;;;;;;;;;;19.73;38.83;94414.25;10482901;28;1931;-67
2023/03/31 22:07:36;;;;;;;;;;;;;;;19.72;38.77;94430.34;10460993;28;1965;-67
2023/03/31 22:12:36;;;;;;;;;;;;;;;19.70;38.74;94424.59;10480101;28;1984;-66
2023/03/31 22:17:36;;;;;;;;;;;;;;;19.69;38.67;94434.34;10474026;28;2000;-67
2023/03/31 22:22:38;;;;;;;;;;;;;;;19.67;38.60;94425.19;10482383;28;1973;-67
2023/03/31 22:27:39;;;;;;;;;;;;;;;19.66;38.44;94421.03;10482118;28;1953;-67
2023/03/31 22:32:39;;;;;;;;;;;;;;;19.65;38.39;94440.47;10473506;28;2244;-67
2023/03/31 22:37:40;;;;;;;;;;;;;;;19.64;38.48;94436.31;10482940;28;2025;-67
2023/03/31 22:42:41;;;;;;;;;;;;;;;19.63;38.32;94432.13;10477721;28;2186;-67
2023/03/31 22:47:41;;;;;;;;;;;;;;;19.61;38.21;94436.91;10476322;28;2141;-67
2023/03/31 22:52:44;;;;;;;;;;;;;;;19.59;38.15;94446.94;10479162;28;1943;-67
2023/03/31 22:57:45;;;;;;;;;;;;;;;19.58;38.20;94442.78;10476631;28;1977;-67
2023/03/31 23:02:45;;;;;;;;;;;;;;;19.57;38.03;94439.34;10467322;28;1983;-68
2023/03/31 23:07:46;;;;;;;;;;;;;;;19.55;38.11;94433.63;10479059;28;1973;-69
2023/03/31 23:12:56;;;;;;;;;;;;;;;19.54;37.98;94436.56;10482018;28;2356;-67
2023/03/31 23:17:57;;;;;;;;;;;;;;;19.52;38.08;94423.69;10478158;28;2148;-68
2023/03/31 23:22:58;;;;;;;;;;;;;;;19.51;37.87;94416.91;10483438;28;1961;-67
2023/03/31 23:28:00;;;;;;;;;;;;;;;19.49;37.74;94414.53;10488242;28;1952;-69
2023/03/31 23:33:00;;;;;;;;;;;;;;;19.48;37.84;94423.50;10468363;28;1976;-67
2023/03/31 23:38:01;;;;;;;;;;;;;;;19.47;37.83;94427.22;10490064;28;2338;-68
2023/03/31 23:43:02;;;;;;;;;;;;;;;19.47;37.67;94416.69;10491582;28;1735;-68
2023/03/31 23:48:03;;;;;;;;;;;;;;;19.46;37.65;94419.63;10493748;28;1866;-68
2023/03/31 23:53:03;;;;;;;;;;;;;;;19.43;37.52;94434.13;10480411;28;2063;-67
2023/03/31 23:58:04;;;;;;;;;;;;;;;19.44;37.47;94421.78;10483929;28;2085;-67
